createdAt,value
2019-01-12T00:02:23.824Z,17.07
2019-01-12T00:04:53.330Z,14.00
2019-01-12T00:07:22.827Z,11.17
2019-01-12T00:09:52.347Z,10.20
2019-01-12T00:12:21.885Z,14.23
2019-01-12T00:14:51.636Z,11.23
2019-01-12T00:17:21.157Z,7.20
2019-01-12T00:19:50.658Z,14.17
2019-01-12T00:22:20.203Z,12.17
2019-01-12T00:24:49.692Z,14.63
2019-01-12T00:27:19.178Z,11.27
2019-01-12T00:29:48.675Z,13.00
2019-01-12T00:32:18.185Z,8.23
2019-01-12T00:34:47.674Z,10.23
2019-01-12T00:37:17.209Z,9.87
2019-01-12T00:39:46.715Z,12.33
2019-01-12T00:42:16.211Z,9.67
2019-01-12T00:44:45.741Z,7.87
2019-01-12T00:47:15.280Z,11.80
2019-01-12T00:49:44.826Z,16.80
2019-01-12T00:52:14.340Z,10.47
2019-01-12T00:54:43.867Z,11.97
2019-01-12T00:57:13.342Z,8.50
2019-01-12T00:59:42.878Z,13.93
2019-01-12T01:02:12.400Z,9.47
2019-01-12T01:04:42.590Z,9.67
2019-01-12T01:07:12.087Z,7.23
2019-01-12T01:09:41.627Z,8.03
2019-01-12T01:12:11.115Z,6.83
2019-01-12T01:14:40.623Z,9.63
2019-01-12T01:17:10.137Z,4.07
2019-01-12T01:19:39.635Z,5.60
2019-01-12T01:22:09.311Z,6.20
2019-01-12T01:24:45.593Z,7.77
2019-01-12T01:27:09.964Z,6.77
2019-01-12T01:29:39.447Z,7.67
2019-01-12T01:32:08.979Z,8.37
2019-01-12T01:34:38.506Z,6.17
2019-01-12T01:37:07.990Z,7.27
2019-01-12T01:39:37.506Z,5.83
2019-01-12T01:42:07.147Z,6.57
2019-01-12T01:44:36.976Z,10.53
2019-01-12T01:47:06.481Z,6.50
2019-01-12T01:49:36.086Z,9.30
2019-01-12T01:52:05.627Z,7.07
2019-01-12T01:54:35.174Z,6.20
2019-01-12T01:57:04.691Z,10.13
2019-01-12T01:59:34.213Z,10.23
2019-01-12T02:02:03.078Z,8.57
2019-01-12T02:04:32.596Z,10.73
2019-01-12T02:07:02.161Z,7.70
2019-01-12T02:09:31.694Z,7.70
2019-01-12T02:12:01.227Z,10.80
2019-01-12T02:14:30.743Z,7.97
2019-01-12T02:17:00.256Z,8.30
2019-01-12T02:19:29.799Z,10.37
2019-01-12T02:21:59.329Z,8.67
2019-01-12T02:24:28.818Z,7.53
2019-01-12T02:26:58.383Z,8.73
2019-01-12T02:29:27.914Z,8.40
2019-01-12T02:31:57.416Z,7.03
2019-01-12T02:34:26.305Z,6.67
2019-01-12T02:36:55.792Z,6.23
2019-01-12T02:39:25.307Z,8.27
2019-01-12T02:41:54.859Z,10.87
2019-01-12T02:44:24.399Z,9.83
2019-01-12T02:46:53.965Z,7.07
2019-01-12T02:49:23.435Z,8.40
2019-01-12T02:51:53.011Z,10.37
2019-01-12T02:54:22.532Z,7.43
2019-01-12T02:56:52.287Z,7.87
2019-01-12T02:59:21.788Z,7.60
2019-01-12T03:01:51.271Z,5.37
2019-01-12T03:04:20.796Z,6.30
2019-01-12T03:06:50.431Z,5.93
2019-01-12T03:09:19.949Z,10.10
2019-01-12T03:11:49.460Z,8.47
2019-01-12T03:14:18.946Z,5.90
2019-01-12T03:16:48.455Z,8.97
2019-01-12T03:19:18.010Z,6.33
2019-01-12T03:21:47.513Z,7.17
2019-01-12T03:24:17.084Z,9.23
2019-01-12T03:26:45.950Z,8.47
2019-01-12T03:29:15.557Z,12.67
2019-01-12T03:31:45.089Z,8.50
2019-01-12T03:34:14.601Z,11.63
2019-01-12T03:36:44.120Z,9.90
2019-01-12T03:39:13.604Z,9.57
2019-01-12T03:41:43.115Z,7.27
2019-01-12T03:44:12.637Z,11.10
2019-01-12T03:46:42.138Z,8.53
2019-01-12T03:49:11.669Z,9.17
2019-01-12T03:51:41.222Z,9.00
2019-01-12T03:54:10.796Z,9.67
2019-01-12T03:56:40.316Z,9.37
2019-01-12T03:59:09.803Z,9.23
2019-01-12T04:01:39.328Z,8.27
2019-01-12T04:04:08.800Z,9.10
2019-01-12T04:06:38.311Z,11.47
2019-01-12T04:09:09.436Z,13.27
2019-01-12T04:11:38.939Z,12.03
2019-01-12T04:14:08.475Z,9.57
2019-01-12T04:16:37.986Z,10.90
2019-01-12T04:19:07.525Z,12.70
2019-01-12T04:21:37.051Z,9.60
2019-01-12T04:24:06.706Z,8.23
2019-01-12T04:26:36.255Z,8.63
2019-01-12T04:29:06.258Z,9.10
2019-01-12T04:31:35.800Z,9.20
2019-01-12T04:34:05.416Z,6.63
2019-01-12T04:36:35.035Z,9.67
2019-01-12T04:39:07.182Z,8.60
2019-01-12T04:41:36.718Z,7.03
2019-01-12T04:44:06.264Z,6.63
2019-01-12T04:46:35.791Z,8.03
2019-01-12T04:49:05.333Z,5.23
2019-01-12T04:51:34.874Z,5.37
2019-01-12T04:54:04.419Z,3.87
2019-01-12T04:56:33.938Z,3.43
2019-01-12T04:59:03.480Z,3.43
2019-01-12T05:01:33.013Z,5.90
2019-01-12T05:04:02.495Z,6.00
2019-01-12T05:06:32.166Z,5.50
2019-01-12T05:09:01.713Z,5.90
2019-01-12T05:11:31.215Z,4.73
2019-01-12T05:14:00.722Z,8.17
2019-01-12T05:16:30.247Z,6.23
2019-01-12T05:18:59.737Z,7.23
2019-01-12T05:21:29.266Z,8.07
2019-01-12T05:23:58.773Z,8.37
2019-01-12T05:26:28.307Z,5.67
2019-01-12T05:28:57.830Z,5.97
2019-01-12T05:31:27.318Z,6.57
2019-01-12T05:33:56.821Z,4.90
2019-01-12T05:36:25.685Z,6.73
2019-01-12T05:38:55.211Z,6.30
2019-01-12T05:41:24.697Z,5.97
2019-01-12T05:43:54.262Z,6.50
2019-01-12T05:46:23.768Z,7.87
2019-01-12T05:48:53.305Z,5.47
2019-01-12T05:51:22.835Z,8.10
2019-01-12T05:53:52.392Z,8.67
2019-01-12T05:56:21.866Z,7.23
2019-01-12T05:58:51.412Z,7.33
2019-01-12T06:01:20.958Z,7.83
2019-01-12T06:03:50.465Z,5.00
2019-01-12T06:06:19.969Z,7.47
2019-01-12T06:08:49.466Z,5.47
2019-01-12T06:11:18.972Z,7.50
2019-01-12T06:13:48.454Z,8.80
2019-01-12T06:16:18.018Z,5.93
2019-01-12T06:18:47.507Z,6.40
2019-01-12T06:21:17.043Z,7.67
2019-01-12T06:23:46.518Z,7.37
2019-01-12T06:26:16.284Z,6.93
2019-01-12T06:28:45.826Z,5.00
2019-01-12T06:31:15.330Z,5.67
2019-01-12T06:33:44.864Z,8.53
2019-01-12T06:36:14.404Z,6.53
2019-01-12T06:38:43.922Z,10.07
2019-01-12T06:41:13.420Z,5.83
2019-01-12T06:43:43.008Z,7.57
2019-01-12T06:46:12.515Z,7.07
2019-01-12T06:48:42.059Z,5.00
2019-01-12T06:51:11.626Z,6.20
2019-01-12T06:53:41.149Z,6.87
2019-01-12T06:56:10.965Z,5.43
2019-01-12T06:58:40.867Z,5.33
2019-01-12T07:01:10.538Z,8.47
2019-01-12T07:03:40.039Z,9.57
2019-01-12T07:06:09.528Z,7.27
2019-01-12T07:08:39.108Z,12.57
2019-01-12T07:11:08.703Z,8.73
2019-01-12T07:13:38.215Z,7.47
2019-01-12T07:16:07.733Z,8.93
2019-01-12T07:18:37.272Z,11.90
2019-01-12T07:21:06.765Z,11.47
2019-01-12T07:23:36.457Z,13.07
2019-01-12T07:26:05.982Z,9.37
2019-01-12T07:28:35.499Z,8.77
2019-01-12T07:31:04.954Z,10.40
2019-01-12T07:33:34.469Z,10.33
2019-01-12T07:36:04.007Z,11.47
2019-01-12T07:38:33.571Z,13.80
2019-01-12T07:41:03.072Z,11.40
2019-01-12T07:43:32.559Z,12.20
2019-01-12T07:46:02.083Z,10.77
2019-01-12T07:48:31.568Z,11.80
2019-01-12T07:51:01.106Z,14.50
2019-01-12T07:53:30.718Z,15.30
2019-01-12T07:56:00.229Z,12.93
2019-01-12T07:58:29.746Z,13.37
2019-01-12T08:00:59.282Z,13.67
2019-01-12T08:03:28.777Z,13.57
2019-01-12T08:05:59.172Z,14.77
2019-01-12T08:08:28.080Z,12.43
2019-01-12T08:10:57.584Z,11.60
2019-01-12T08:13:27.083Z,13.80
2019-01-12T08:15:56.586Z,13.10
2019-01-12T08:18:26.131Z,14.47
2019-01-12T08:20:55.623Z,13.47
2019-01-12T08:23:25.131Z,16.03
2019-01-12T08:25:54.697Z,14.90
2019-01-12T08:28:23.568Z,15.30
2019-01-12T08:30:53.142Z,14.17
2019-01-12T08:33:22.733Z,14.43
2019-01-12T08:35:52.221Z,14.60
2019-01-12T08:38:21.750Z,15.37
2019-01-12T08:40:51.286Z,18.60
2019-01-12T08:43:20.814Z,18.83
2019-01-12T08:45:50.328Z,15.90
2019-01-12T08:48:19.832Z,18.13
2019-01-12T08:50:49.494Z,19.50
2019-01-12T08:53:19.005Z,17.50
2019-01-12T08:55:48.806Z,19.57
2019-01-12T08:58:18.335Z,18.73
2019-01-12T09:00:47.833Z,17.73
2019-01-12T09:03:17.352Z,16.53
2019-01-12T09:05:46.952Z,17.87
2019-01-12T09:08:16.460Z,21.67
2019-01-12T09:10:46.046Z,15.40
2019-01-12T09:13:15.481Z,24.87
2019-01-12T09:15:45.011Z,20.27
2019-01-12T09:18:14.573Z,21.97
2019-01-12T09:20:44.057Z,24.37
2019-01-12T09:23:13.548Z,22.40
2019-01-12T09:25:43.041Z,21.97
2019-01-12T09:28:12.559Z,21.20
2019-01-12T09:30:48.318Z,24.57
2019-01-12T09:33:13.279Z,24.40
2019-01-12T09:35:44.495Z,26.73
2019-01-12T09:38:15.204Z,27.80
2019-01-12T09:40:44.716Z,28.00
2019-01-12T09:43:14.218Z,25.27
2019-01-12T09:45:43.765Z,27.27
2019-01-12T09:48:13.276Z,28.07
2019-01-12T09:50:42.775Z,32.53
2019-01-12T09:53:12.423Z,29.67
2019-01-12T09:55:41.939Z,26.43
2019-01-12T09:58:10.829Z,29.80
2019-01-12T10:00:40.330Z,27.40
2019-01-12T10:03:09.861Z,33.43
2019-01-12T10:05:39.411Z,29.90
2019-01-12T10:08:08.945Z,35.30
2019-01-12T10:10:38.486Z,32.73
2019-01-12T10:13:08.061Z,33.43
2019-01-12T10:15:37.526Z,33.60
2019-01-12T10:18:07.073Z,39.87
2019-01-12T10:20:36.600Z,38.07
2019-01-12T10:23:06.158Z,39.77
2019-01-12T10:25:35.686Z,41.57
2019-01-12T10:28:05.270Z,45.47
2019-01-12T10:30:34.769Z,46.30
2019-01-12T10:33:05.837Z,47.87
2019-01-12T10:35:35.351Z,43.60
2019-01-12T10:38:05.278Z,49.53
2019-01-12T10:40:34.171Z,50.60
2019-01-12T10:43:03.742Z,47.23
2019-01-12T10:45:33.336Z,48.67
2019-01-12T10:48:02.903Z,48.33
2019-01-12T10:50:36.039Z,48.07
2019-01-12T10:53:05.457Z,49.77
2019-01-12T10:55:35.008Z,56.77
2019-01-12T10:58:05.929Z,50.93
2019-01-12T11:00:37.177Z,46.40
2019-01-12T11:03:07.072Z,46.47
2019-01-12T11:05:36.611Z,44.47
2019-01-12T11:08:07.122Z,47.50
2019-01-12T11:10:36.931Z,49.57
2019-01-12T11:13:06.796Z,44.33
2019-01-12T11:15:36.313Z,44.20
2019-01-12T11:18:06.236Z,47.87
2019-01-12T11:20:35.740Z,51.30
2019-01-12T11:23:05.541Z,45.57
2019-01-12T11:25:35.096Z,44.30
2019-01-12T11:28:04.594Z,46.27
2019-01-12T11:30:34.712Z,47.83
2019-01-12T11:33:03.637Z,43.67
2019-01-12T11:35:33.330Z,44.50
2019-01-12T11:38:02.873Z,37.67
2019-01-12T11:40:32.362Z,41.23
2019-01-12T11:43:01.864Z,36.77
2019-01-12T11:45:31.401Z,38.33
2019-01-12T11:48:00.932Z,38.40
2019-01-12T11:50:30.568Z,42.70
2019-01-12T11:53:01.133Z,41.67
2019-01-12T11:55:30.709Z,39.50
2019-01-12T11:58:01.778Z,45.60
2019-01-12T12:00:31.781Z,42.90
2019-01-12T12:03:01.530Z,39.87
2019-01-12T12:05:31.055Z,45.20
2019-01-12T12:08:00.554Z,47.73
2019-01-12T12:10:29.533Z,42.87
2019-01-12T12:12:59.031Z,49.07
2019-01-12T12:15:28.545Z,46.10
2019-01-12T12:17:58.083Z,46.90
2019-01-12T12:20:28.862Z,50.07
2019-01-12T12:22:58.470Z,46.97
2019-01-12T12:25:27.985Z,54.13
2019-01-12T12:27:57.479Z,53.70
2019-01-12T12:30:29.320Z,56.83
2019-01-12T12:32:59.305Z,53.30
2019-01-12T12:35:28.879Z,51.30
2019-01-12T12:37:58.426Z,60.03
2019-01-12T12:40:28.018Z,56.40
2019-01-12T12:42:57.556Z,55.50
2019-01-12T12:45:32.383Z,52.30
2019-01-12T12:48:01.921Z,53.80
2019-01-12T12:50:31.467Z,46.90
2019-01-12T12:53:01.025Z,52.30
2019-01-12T12:55:30.589Z,47.47
2019-01-12T12:58:01.557Z,51.60
2019-01-12T13:00:35.077Z,45.47
2019-01-12T13:03:04.706Z,42.83
2019-01-12T13:05:34.244Z,44.27
2019-01-12T13:08:03.840Z,41.53
2019-01-12T13:10:33.073Z,40.87
2019-01-12T13:13:02.638Z,33.53
2019-01-12T13:15:32.412Z,36.37
2019-01-12T13:18:01.946Z,35.33
2019-01-12T13:20:31.501Z,36.27
2019-01-12T13:23:01.048Z,36.27
2019-01-12T13:25:30.586Z,29.27
2019-01-12T13:28:00.207Z,31.63
2019-01-12T13:30:29.300Z,31.57
2019-01-12T13:32:58.927Z,30.63
2019-01-12T13:35:28.467Z,29.70
2019-01-12T13:37:58.106Z,33.83
2019-01-12T13:40:29.086Z,28.83
2019-01-12T13:42:57.981Z,27.60
2019-01-12T13:45:27.485Z,27.27
2019-01-12T13:47:57.206Z,29.10
2019-01-12T13:50:28.042Z,25.67
2019-01-12T13:52:57.644Z,27.27
2019-01-12T13:55:27.437Z,23.17
2019-01-12T13:57:56.924Z,20.70
2019-01-12T14:00:32.335Z,20.37
2019-01-12T14:03:01.723Z,20.43
2019-01-12T14:05:31.651Z,20.47
2019-01-12T14:08:01.146Z,19.63
2019-01-12T14:10:30.723Z,21.10
2019-01-12T14:13:00.309Z,23.37
2019-01-12T14:15:29.829Z,19.50
2019-01-12T14:18:02.575Z,22.60
2019-01-12T14:20:34.426Z,21.10
2019-01-12T14:23:03.919Z,19.97
2019-01-12T14:25:33.465Z,21.37
2019-01-12T14:28:03.124Z,18.93
2019-01-12T14:30:33.991Z,19.97
2019-01-12T14:33:03.771Z,19.40
2019-01-12T14:35:33.435Z,20.93
2019-01-12T14:38:02.968Z,20.23
2019-01-12T14:40:32.542Z,23.13
2019-01-12T14:43:02.041Z,19.77
2019-01-12T14:45:33.097Z,17.77
2019-01-12T14:48:02.612Z,19.10
2019-01-12T14:50:32.121Z,16.00
2019-01-12T14:53:01.741Z,16.60
2019-01-12T14:55:31.376Z,17.27
2019-01-12T14:58:02.549Z,13.43
2019-01-12T15:00:32.058Z,12.63
2019-01-12T15:03:00.984Z,13.73
2019-01-12T15:05:32.121Z,13.50
2019-01-12T15:08:01.651Z,12.90
2019-01-12T15:10:31.512Z,15.37
2019-01-12T15:13:01.016Z,12.57
2019-01-12T15:15:31.726Z,12.40
2019-01-12T15:18:01.229Z,12.53
2019-01-12T15:20:32.211Z,13.47
2019-01-12T15:23:02.157Z,12.30
2019-01-12T15:25:31.010Z,12.30
2019-01-12T15:28:01.019Z,11.90
2019-01-12T15:30:32.075Z,14.93
2019-01-12T15:33:03.949Z,12.07
2019-01-12T15:35:34.705Z,11.03
2019-01-12T15:38:04.270Z,12.60
2019-01-12T15:40:33.832Z,15.53
2019-01-12T15:43:03.378Z,16.43
2019-01-12T15:45:32.932Z,13.53
2019-01-12T15:48:02.431Z,15.03
2019-01-12T15:50:31.943Z,16.20
2019-01-12T15:53:01.626Z,14.27
2019-01-12T15:55:31.320Z,11.23
2019-01-12T15:58:00.855Z,10.43
2019-01-12T16:00:30.970Z,12.53
2019-01-12T16:03:00.497Z,9.30
2019-01-12T16:05:30.992Z,12.10
2019-01-12T16:08:00.582Z,12.30
2019-01-12T16:10:30.132Z,11.93
2019-01-12T16:12:59.618Z,8.87
2019-01-12T16:15:29.203Z,10.63
2019-01-12T16:17:59.173Z,7.97
2019-01-12T16:20:40.093Z,7.17
2019-01-12T16:23:18.965Z,7.43
2019-01-12T16:26:02.416Z,8.13
2019-01-12T16:28:32.202Z,8.80
2019-01-12T16:31:01.678Z,8.43
2019-01-12T16:33:31.183Z,5.90
2019-01-12T16:36:00.728Z,8.13
2019-01-12T16:38:30.196Z,6.10
2019-01-12T16:40:59.796Z,8.40
2019-01-12T16:43:29.302Z,6.10
2019-01-12T16:45:58.839Z,10.83
2019-01-12T16:48:27.720Z,5.20
2019-01-12T16:50:57.205Z,7.70
2019-01-12T16:53:26.761Z,7.27
2019-01-12T16:55:57.554Z,7.13
2019-01-12T16:58:30.586Z,8.50
2019-01-12T17:00:58.210Z,9.10
2019-01-12T17:03:27.741Z,8.93
2019-01-12T17:05:57.256Z,7.80
2019-01-12T17:08:26.746Z,6.67
2019-01-12T17:10:56.289Z,10.30
2019-01-12T17:13:25.928Z,9.73
2019-01-12T17:15:54.794Z,5.43
2019-01-12T17:18:24.279Z,9.13
2019-01-12T17:20:53.800Z,4.90
2019-01-12T17:23:23.280Z,6.73
2019-01-12T17:25:52.770Z,6.77
2019-01-12T17:28:22.281Z,7.27
2019-01-12T17:30:51.780Z,8.23
2019-01-12T17:33:21.295Z,6.57
2019-01-12T17:35:50.817Z,8.20
2019-01-12T17:38:20.353Z,11.87
2019-01-12T17:40:49.856Z,10.50
2019-01-12T17:43:19.399Z,11.47
2019-01-12T17:45:48.876Z,10.43
2019-01-12T17:48:18.402Z,15.63
2019-01-12T17:50:47.946Z,12.57
2019-01-12T17:53:17.422Z,11.93
2019-01-12T17:55:46.959Z,10.77
2019-01-12T17:58:16.429Z,9.83
2019-01-12T18:00:51.013Z,15.50
2019-01-12T18:03:20.520Z,12.20
2019-01-12T18:05:51.688Z,11.30
2019-01-12T18:08:21.198Z,10.17
2019-01-12T18:10:50.719Z,16.00
2019-01-12T18:13:20.237Z,15.53
2019-01-12T18:15:49.722Z,10.47
2019-01-12T18:18:19.263Z,12.57
2019-01-12T18:20:48.762Z,12.93
2019-01-12T18:23:18.249Z,15.57
2019-01-12T18:25:47.754Z,16.33
2019-01-12T18:28:17.283Z,13.10
2019-01-12T18:30:46.786Z,10.20
2019-01-12T18:33:16.274Z,12.27
2019-01-12T18:35:45.790Z,6.47
2019-01-12T18:38:15.343Z,9.57
2019-01-12T18:40:44.862Z,6.80
2019-01-12T18:43:14.416Z,5.30
2019-01-12T18:45:43.933Z,6.07
2019-01-12T18:48:13.494Z,6.63
2019-01-12T18:50:43.060Z,9.23
2019-01-12T18:53:12.543Z,5.97
2019-01-12T18:55:42.023Z,10.23
2019-01-12T18:58:11.545Z,7.40
2019-01-12T19:00:41.038Z,13.60
2019-01-12T19:03:10.550Z,10.83
2019-01-12T19:05:40.058Z,6.40
2019-01-12T19:08:09.563Z,11.13
2019-01-12T19:10:39.058Z,12.63
2019-01-12T19:13:08.552Z,11.97
2019-01-12T19:15:37.490Z,13.80
2019-01-12T19:18:07.032Z,8.90
2019-01-12T19:20:36.582Z,11.90
2019-01-12T19:23:06.066Z,14.50
2019-01-12T19:25:35.626Z,13.27
2019-01-12T19:28:05.108Z,11.60
2019-01-12T19:30:34.734Z,20.13
2019-01-12T19:33:04.215Z,12.77
2019-01-12T19:35:33.765Z,14.27
2019-01-12T19:38:03.309Z,10.80
2019-01-12T19:40:32.795Z,15.30
2019-01-12T19:43:02.307Z,13.77
2019-01-12T19:45:31.843Z,12.70
2019-01-12T19:48:01.378Z,12.80
2019-01-12T19:50:30.852Z,12.63
2019-01-12T19:53:00.375Z,12.60
2019-01-12T19:55:29.919Z,16.20
2019-01-12T19:57:59.432Z,14.77
2019-01-12T20:00:33.879Z,12.27
2019-01-12T20:03:03.383Z,12.03
2019-01-12T20:05:32.863Z,10.33
2019-01-12T20:08:02.385Z,14.70
2019-01-12T20:10:31.935Z,11.77
2019-01-12T20:13:01.515Z,10.60
2019-01-12T20:15:31.033Z,19.53
2019-01-12T20:18:00.531Z,16.87
2019-01-12T20:20:30.051Z,10.47
2019-01-12T20:22:58.967Z,12.80
2019-01-12T20:25:32.257Z,10.23
2019-01-12T20:28:07.691Z,11.53
2019-01-12T20:31:33.364Z,14.17
2019-01-12T20:34:27.907Z,9.97
2019-01-12T20:37:43.004Z,12.87
2019-01-12T20:40:47.352Z,11.33
2019-01-12T20:44:01.854Z,11.57
2019-01-12T20:46:43.420Z,12.37
2019-01-12T20:49:37.312Z,12.87
2019-01-12T20:52:50.476Z,7.17
2019-01-12T20:55:56.512Z,12.50
2019-01-12T20:59:02.779Z,12.17
2019-01-12T21:01:59.825Z,9.20
2019-01-12T21:05:09.154Z,9.23
2019-01-12T21:08:04.998Z,9.07
2019-01-12T21:11:06.492Z,8.67
2019-01-12T21:14:19.319Z,10.13
2019-01-12T21:17:07.758Z,7.73
2019-01-12T21:19:37.343Z,12.43
2019-01-12T21:22:07.108Z,8.37
2019-01-12T21:24:36.605Z,8.10
2019-01-12T21:27:06.265Z,10.07
2019-01-12T21:29:35.777Z,12.47
2019-01-12T21:32:05.562Z,9.73
2019-01-12T21:34:35.185Z,10.93
2019-01-12T21:37:04.763Z,13.80
2019-01-12T21:39:34.297Z,11.10
2019-01-12T21:42:03.798Z,12.40
2019-01-12T21:44:33.295Z,9.70
2019-01-12T21:47:02.951Z,20.83
2019-01-12T21:49:32.495Z,10.67
2019-01-12T21:52:01.984Z,12.10
2019-01-12T21:54:31.477Z,10.67
2019-01-12T21:57:00.998Z,12.47
2019-01-12T21:59:30.474Z,8.70
2019-01-12T22:02:00.431Z,10.70
2019-01-12T22:04:29.951Z,7.17
2019-01-12T22:06:59.472Z,12.90
2019-01-12T22:09:29.021Z,10.53
2019-01-12T22:11:58.550Z,10.77
2019-01-12T22:14:28.066Z,11.93
2019-01-12T22:16:57.537Z,16.17
2019-01-12T22:19:27.073Z,8.87
2019-01-12T22:21:55.917Z,14.20
2019-01-12T22:24:25.411Z,12.97
2019-01-12T22:26:54.893Z,15.57
2019-01-12T22:29:24.379Z,15.20
2019-01-12T22:31:53.850Z,9.90
2019-01-12T22:34:23.365Z,13.77
2019-01-12T22:36:52.863Z,12.77
2019-01-12T22:39:21.760Z,10.97
2019-01-12T22:41:51.289Z,14.60
2019-01-12T22:44:20.819Z,10.60
2019-01-12T22:46:50.386Z,11.90
2019-01-12T22:49:19.894Z,13.57
2019-01-12T22:51:49.498Z,10.07
2019-01-12T22:54:18.993Z,13.50
2019-01-12T22:56:48.507Z,11.73
2019-01-12T22:59:18.063Z,12.60
2019-01-12T23:01:56.720Z,12.33
2019-01-12T23:04:27.766Z,15.83
2019-01-12T23:06:57.382Z,13.50
2019-01-12T23:09:26.920Z,10.63
2019-01-12T23:11:56.426Z,23.10
2019-01-12T23:14:25.930Z,11.90
2019-01-12T23:16:55.530Z,20.87
2019-01-12T23:19:25.020Z,12.37
2019-01-12T23:21:54.512Z,12.90
2019-01-12T23:24:24.069Z,15.53
2019-01-12T23:26:53.569Z,15.23
2019-01-12T23:29:23.127Z,15.57
2019-01-12T23:31:52.640Z,17.07
2019-01-12T23:34:22.126Z,16.00
2019-01-12T23:36:51.650Z,12.03
2019-01-12T23:39:21.131Z,19.33
2019-01-12T23:41:50.664Z,14.57
2019-01-12T23:44:20.158Z,12.57
2019-01-12T23:46:49.751Z,12.57
2019-01-12T23:49:19.270Z,12.23
2019-01-12T23:51:48.731Z,12.83
2019-01-12T23:54:18.215Z,14.17
2019-01-12T23:56:47.692Z,12.27
2019-01-12T23:59:17.238Z,19.93
